Time,TemperatureF,DewpointF,PressureIn,WindDirection,WindDirectionDegrees,WindSpeedMPH,WindSpeedGustMPH,Humidity,HourlyPrecipIn,Conditions,Clouds,dailyrainin,SoftwareType,DateUTC
2013-08-07 00:10:00,84.0,39.8,29.69,West,270,6.3,-999.0,21,-99.99,,,0.00,Acu-Link.com,2013-08-07 07:10:00,
2013-08-07 00:25:00,83.8,37.1,29.70,West,270,6.3,-999.0,19,-99.99,,,0.00,Acu-Link.com,2013-08-07 07:25:00,
2013-08-07 00:41:00,83.3,35.4,29.70,SW,225,7.3,-999.0,18,-99.99,,,0.00,Acu-Link.com,2013-08-07 07:41:00,
2013-08-07 00:56:00,83.7,34.2,29.70,West,270,6.3,-999.0,17,-99.99,,,0.00,Acu-Link.com,2013-08-07 07:56:00,
2013-08-07 01:11:00,82.9,33.6,29.70,WSW,247,11.9,-999.0,17,-99.99,,,0.00,Acu-Link.com,2013-08-07 08:11:00,
2013-08-07 01:26:00,82.6,33.4,29.70,South,180,8.3,-999.0,17,-99.99,,,0.00,Acu-Link.com,2013-08-07 08:26:00,
2013-08-07 01:41:00,82.2,33.0,29.70,WSW,247,8.9,-999.0,17,-99.99,,,0.00,Acu-Link.com,2013-08-07 08:41:00,
2013-08-07 01:57:00,82.9,32.1,29.70,WNW,292,8.9,-999.0,16,-99.99,,,0.00,Acu-Link.com,2013-08-07 08:57:00,
2013-08-07 02:12:00,82.4,31.7,29.70,NW,315,6.3,-999.0,16,-99.99,,,0.00,Acu-Link.com,2013-08-07 09:12:00,
2013-08-07 02:27:00,82.4,30.1,29.70,WNW,292,11.4,-999.0,15,-99.99,,,0.00,Acu-Link.com,2013-08-07 09:27:00,
2013-08-07 02:42:00,82.0,32.9,29.70,West,270,9.4,-999.0,17,-99.99,,,0.00,Acu-Link.com,2013-08-07 09:42:00,
2013-08-07 02:57:00,81.9,32.8,29.69,North,0,5.8,-999.0,17,-99.99,,,0.00,Acu-Link.com,2013-08-07 09:57:00,
2013-08-07 03:12:00,82.0,32.9,29.70,ESE,112,5.8,-999.0,17,-99.99,,,0.00,Acu-Link.com,2013-08-07 10:12:00,
2013-08-07 03:28:00,81.9,34.2,29.69,WNW,292,4.7,-999.0,18,-99.99,,,0.00,Acu-Link.com,2013-08-07 10:28:00,
2013-08-07 03:43:00,82.2,33.0,29.70,West,270,6.8,-999.0,17,-99.99,,,0.00,Acu-Link.com,2013-08-07 10:43:00,
2013-08-07 03:58:00,81.9,32.8,29.69,WSW,247,5.3,-999.0,17,-99.99,,,0.00,Acu-Link.com,2013-08-07 10:58:00,
2013-08-07 04:13:00,82.0,31.4,29.70,WSW,247,4.7,-999.0,16,-99.99,,,0.00,Acu-Link.com,2013-08-07 11:13:00,
2013-08-07 04:29:00,81.3,32.3,29.69,West,270,3.2,-999.0,17,-99.99,,,0.00,Acu-Link.com,2013-08-07 11:29:00,
2013-08-07 04:44:00,80.8,33.3,29.69,WSW,247,5.3,-999.0,18,-99.99,,,0.00,Acu-Link.com,2013-08-07 11:44:00,
2013-08-07 04:59:00,81.0,32.1,29.69,West,270,7.3,-999.0,17,-99.99,,,0.00,Acu-Link.com,2013-08-07 11:59:00,
2013-08-07 05:14:00,79.7,41.8,29.71,South,180,0.0,-999.0,26,-99.99,,,0.00,Acu-Link.com,2013-08-07 12:14:00,
2013-08-07 05:29:00,79.7,39.7,29.71,West,270,4.7,-999.0,24,-99.99,,,0.00,Acu-Link.com,2013-08-07 12:29:00,
2013-08-07 05:45:00,79.3,37.1,29.72,West,270,5.3,-999.0,22,-99.99,,,0.00,Acu-Link.com,2013-08-07 12:45:00,
2013-08-07 06:00:00,79.7,39.7,29.72,WNW,292,1.7,-999.0,24,-99.99,,,0.00,Acu-Link.com,2013-08-07 13:00:00,
2013-08-07 06:15:00,80.2,31.4,29.72,SW,225,4.7,-999.0,17,-99.99,,,0.00,Acu-Link.com,2013-08-07 13:15:00,
2013-08-07 06:30:00,80.4,34.4,29.73,West,270,2.7,-999.0,19,-99.99,,,0.00,Acu-Link.com,2013-08-07 13:30:00,
2013-08-07 06:45:00,82.6,26.8,29.72,NW,315,5.3,-999.0,13,-99.99,,,0.00,Acu-Link.com,2013-08-07 13:45:00,
2013-08-07 07:01:00,82.2,35.8,29.73,West,270,3.7,-999.0,19,-99.99,,,0.00,Acu-Link.com,2013-08-07 14:01:00,
2013-08-07 07:16:00,81.7,24.1,29.73,WNW,292,9.4,-999.0,12,-99.99,,,0.00,Acu-Link.com,2013-08-07 14:16:00,
2013-08-07 07:31:00,84.2,24.0,29.73,ESE,112,6.3,-999.0,11,-99.99,,,0.00,Acu-Link.com,2013-08-07 14:31:00,
2013-08-07 07:46:00,84.9,26.6,29.73,WNW,292,6.3,-999.0,12,-99.99,,,0.00,Acu-Link.com,2013-08-07 14:46:00,
2013-08-07 08:01:00,86.4,25.7,29.73,West,270,3.7,-999.0,11,-99.99,,,0.00,Acu-Link.com,2013-08-07 15:01:00,
2013-08-07 08:16:00,86.2,25.5,29.75,WNW,292,9.9,-999.0,11,-99.99,,,0.00,Acu-Link.com,2013-08-07 15:16:00,
2013-08-07 08:31:00,89.1,25.4,29.75,West,270,8.3,-999.0,10,-99.99,,,0.00,Acu-Link.com,2013-08-07 15:31:00,
2013-08-07 08:47:00,91.4,37.2,29.74,West,270,2.7,-999.0,15,-99.99,,,0.00,Acu-Link.com,2013-08-07 15:47:00,
2013-08-07 09:02:00,89.1,40.0,29.74,SSW,202,2.7,-999.0,18,-99.99,,,0.00,Acu-Link.com,2013-08-07 16:02:00,
2013-08-07 09:17:00,89.2,45.3,29.74,South,180,3.7,-999.0,22,-99.99,,,0.00,Acu-Link.com,2013-08-07 16:17:00,
2013-08-07 09:32:00,92.1,37.8,29.74,SSW,202,2.7,-999.0,15,-99.99,,,0.00,Acu-Link.com,2013-08-07 16:32:00,
2013-08-07 09:48:00,91.9,42.3,29.74,South,180,3.2,-999.0,18,-99.99,,,0.00,Acu-Link.com,2013-08-07 16:48:00,
2013-08-07 10:03:00,92.1,41.0,29.75,South,180,3.2,-999.0,17,-99.99,,,0.00,Acu-Link.com,2013-08-07 17:03:00,
2013-08-07 10:18:00,92.7,36.5,29.75,South,180,3.2,-999.0,14,-99.99,,,0.00,Acu-Link.com,2013-08-07 17:18:00,
2013-08-07 10:34:00,95.0,32.2,29.75,South,180,4.2,-999.0,11,-99.99,,,0.00,Acu-Link.com,2013-08-07 17:34:00,
2013-08-07 10:49:00,95.9,30.6,29.75,ESE,112,0.0,-999.0,10,-99.99,,,0.00,Acu-Link.com,2013-08-07 17:49:00,
2013-08-07 11:04:00,96.6,28.5,29.74,NNW,337,2.7,-999.0,9,-99.99,,,0.00,Acu-Link.com,2013-08-07 18:04:00,
2013-08-07 11:20:00,97.3,29.0,29.74,West,270,3.7,-999.0,9,-99.99,,,0.00,Acu-Link.com,2013-08-07 18:20:00,
2013-08-07 11:35:00,99.0,16.3,29.74,West,270,6.8,-999.0,5,-99.99,,,0.00,Acu-Link.com,2013-08-07 18:35:00,
2013-08-07 11:50:00,98.4,15.9,29.74,SSW,202,2.7,-999.0,5,-99.99,,,0.00,Acu-Link.com,2013-08-07 18:50:00,
2013-08-07 12:05:00,100.6,25.3,29.73,SSW,202,4.2,-999.0,7,-99.99,,,0.00,Acu-Link.com,2013-08-07 19:05:00,
2013-08-07 12:21:00,101.5,22.3,29.72,South,180,3.2,-999.0,6,-99.99,,,0.00,Acu-Link.com,2013-08-07 19:21:00,
2013-08-07 12:36:00,100.9,17.6,29.73,SE,135,1.1,-999.0,5,-99.99,,,0.00,Acu-Link.com,2013-08-07 19:36:00,
2013-08-07 12:51:00,102.2,18.5,29.72,NNE,22,2.2,-999.0,5,-99.99,,,0.00,Acu-Link.com,2013-08-07 19:51:00,
2013-08-07 13:06:00,102.7,13.7,29.71,NW,315,2.2,-999.0,4,-99.99,,,0.00,Acu-Link.com,2013-08-07 20:06:00,
2013-08-07 13:21:00,102.7,13.7,29.71,SW,225,7.8,-999.0,4,-99.99,,,0.00,Acu-Link.com,2013-08-07 20:21:00,
2013-08-07 13:36:00,102.7,13.7,29.69,NW,315,4.2,-999.0,4,-99.99,,,0.00,Acu-Link.com,2013-08-07 20:36:00,
2013-08-07 13:51:00,104.0,8.2,29.68,WNW,292,5.8,-999.0,3,-99.99,,,0.00,Acu-Link.com,2013-08-07 20:51:00,
2013-08-07 14:07:00,105.3,9.0,29.69,SSE,157,4.7,-999.0,3,-99.99,,,0.00,Acu-Link.com,2013-08-07 21:07:00,
2013-08-07 14:22:00,103.5,7.8,29.67,SW,225,2.7,-999.0,3,-99.99,,,0.00,Acu-Link.com,2013-08-07 21:22:00,
2013-08-07 14:37:00,105.6,0.4,29.67,NW,315,4.2,-999.0,2,-99.99,,,0.00,Acu-Link.com,2013-08-07 21:37:00,
2013-08-07 14:52:00,106.0,-13.6,29.66,WNW,292,7.3,-999.0,1,-99.99,,,0.00,Acu-Link.com,2013-08-07 21:52:00,
2013-08-07 15:07:00,106.2,0.8,29.65,WSW,247,9.4,-999.0,2,-99.99,,,0.00,Acu-Link.com,2013-08-07 22:07:00,
2013-08-07 15:22:00,104.4,-0.3,29.65,NW,315,10.9,-999.0,2,-99.99,,,0.00,Acu-Link.com,2013-08-07 22:22:00,
2013-08-07 15:37:00,102.2,7.0,29.64,NNW,337,9.9,-999.0,3,-99.99,,,0.00,Acu-Link.com,2013-08-07 22:37:00,
2013-08-07 15:53:00,100.6,5.9,29.63,NE,45,11.4,-999.0,3,-99.99,,,0.00,Acu-Link.com,2013-08-07 22:53:00,
2013-08-07 16:08:00,99.9,5.5,29.64,West,270,10.4,-999.0,3,-99.99,,,0.00,Acu-Link.com,2013-08-07 23:08:00,
2013-08-07 16:23:00,98.8,4.8,29.65,West,270,11.4,-999.0,3,-99.99,,,0.00,Acu-Link.com,2013-08-07 23:23:00,
2013-08-07 16:38:00,98.2,4.4,29.64,ESE,112,6.8,-999.0,3,-99.99,,,0.00,Acu-Link.com,2013-08-07 23:38:00,
2013-08-07 16:54:00,98.1,4.3,29.64,WSW,247,8.9,-999.0,3,-99.99,,,0.00,Acu-Link.com,2013-08-07 23:54:00,
2013-08-07 17:09:00,98.2,4.4,29.64,WSW,247,9.9,-999.0,3,-99.99,,,0.00,Acu-Link.com,2013-08-08 00:09:00,
2013-08-07 17:24:00,98.4,4.5,29.64,SW,225,8.3,-999.0,3,-99.99,,,0.00,Acu-Link.com,2013-08-08 00:24:00,
2013-08-07 17:39:00,97.9,4.2,29.63,West,270,8.3,-999.0,3,-99.99,,,0.00,Acu-Link.com,2013-08-08 00:39:00,
2013-08-07 17:55:00,98.8,-3.9,29.62,WSW,247,8.3,-999.0,2,-99.99,,,0.00,Acu-Link.com,2013-08-08 00:55:00,
2013-08-07 18:10:00,99.3,11.4,29.62,NNW,337,13.0,-999.0,4,-99.99,,,0.00,Acu-Link.com,2013-08-08 01:10:00,
2013-08-07 18:25:00,98.8,4.8,29.63,NNW,337,7.3,-999.0,3,-99.99,,,0.00,Acu-Link.com,2013-08-08 01:25:00,
2013-08-07 18:41:00,98.2,4.4,29.63,West,270,11.9,-999.0,3,-99.99,,,0.00,Acu-Link.com,2013-08-08 01:41:00,
2013-08-07 18:56:00,96.8,9.8,29.63,West,270,8.3,-999.0,4,-99.99,,,0.00,Acu-Link.com,2013-08-08 01:56:00,
2013-08-07 19:11:00,95.2,13.7,29.63,WSW,247,11.4,-999.0,5,-99.99,,,0.00,Acu-Link.com,2013-08-08 02:11:00,
2013-08-07 19:26:00,93.9,16.9,29.64,SW,225,8.3,-999.0,6,-99.99,,,0.00,Acu-Link.com,2013-08-08 02:26:00,
2013-08-07 19:41:00,92.8,19.7,29.65,West,270,10.9,-999.0,7,-99.99,,,0.00,Acu-Link.com,2013-08-08 02:41:00,
2013-08-07 19:56:00,91.8,24.9,29.66,West,270,8.3,-999.0,9,-99.99,,,0.00,Acu-Link.com,2013-08-08 02:56:00,
2013-08-07 20:11:00,90.9,24.3,29.66,NNW,337,7.8,-999.0,9,-99.99,,,0.00,Acu-Link.com,2013-08-08 03:11:00,
2013-08-07 20:26:00,90.3,28.7,29.67,North,0,7.3,-999.0,11,-99.99,,,0.00,Acu-Link.com,2013-08-08 03:26:00,
2013-08-07 20:41:00,89.2,33.8,29.68,ENE,67,9.9,-999.0,14,-99.99,,,0.00,Acu-Link.com,2013-08-08 03:41:00,
2013-08-07 20:56:00,87.6,38.8,29.70,North,0,7.8,-999.0,18,-99.99,,,0.00,Acu-Link.com,2013-08-08 03:56:00,
2013-08-07 21:12:00,86.4,43.0,29.70,NNW,337,15.0,-999.0,22,-99.99,,,0.00,Acu-Link.com,2013-08-08 04:12:00,
2013-08-07 21:27:00,85.6,43.5,29.71,NE,45,11.4,-999.0,23,-99.99,,,0.00,Acu-Link.com,2013-08-08 04:27:00,
2013-08-07 21:42:00,84.9,42.9,29.70,NNE,22,11.9,-999.0,23,-99.99,,,0.00,Acu-Link.com,2013-08-08 04:42:00,
2013-08-07 21:57:00,85.1,42.0,29.71,NE,45,9.9,-999.0,22,-99.99,,,0.01,Acu-Link.com,2013-08-08 04:57:00,
2013-08-07 22:12:00,84.4,42.5,29.70,North,0,10.9,-999.0,23,-99.99,,,0.01,Acu-Link.com,2013-08-08 05:12:00,
2013-08-07 22:27:00,84.4,41.4,29.70,North,0,13.5,-999.0,22,-99.99,,,0.01,Acu-Link.com,2013-08-08 05:27:00,
2013-08-07 22:42:00,84.6,40.3,29.71,WSW,247,7.8,-999.0,21,-99.99,,,0.01,Acu-Link.com,2013-08-08 05:42:00,
2013-08-07 22:57:00,84.2,41.2,29.70,SSW,202,5.3,-999.0,22,-99.99,,,0.01,Acu-Link.com,2013-08-08 05:57:00,
2013-08-07 23:13:00,84.0,41.0,29.69,West,270,11.4,-999.0,22,-99.99,,,0.01,Acu-Link.com,2013-08-08 06:13:00,
2013-08-07 23:28:00,84.0,42.2,29.69,West,270,6.8,-999.0,23,-99.99,,,0.01,Acu-Link.com,2013-08-08 06:28:00,
2013-08-07 23:43:00,83.8,40.9,29.69,WNW,292,7.8,-999.0,22,-99.99,,,0.01,Acu-Link.com,2013-08-08 06:43:00,
2013-08-07 23:58:00,84.0,39.8,29.69,West,270,10.4,-999.0,21,-99.99,,,0.01,Acu-Link.com,2013-08-08 06:58:00,